createdAt,value
2022-12-04T00:02:42.677Z,22.38
2022-12-04T00:05:49.369Z,22.23
2022-12-04T00:08:56.106Z,22.83
2022-12-04T00:12:04.336Z,21.13
2022-12-04T00:15:25.048Z,23.42
2022-12-04T00:18:32.683Z,24.83
2022-12-04T00:21:37.992Z,24.67
2022-12-04T00:24:47.997Z,23.60
2022-12-04T00:27:57.214Z,22.02
2022-12-04T00:31:05.262Z,22.77
2022-12-04T00:34:10.400Z,22.30
2022-12-04T00:37:20.721Z,22.63
2022-12-04T00:40:27.349Z,23.35
2022-12-04T00:43:36.053Z,20.48
2022-12-04T00:46:43.168Z,23.75
2022-12-04T00:49:51.531Z,22.05
2022-12-04T00:52:58.122Z,23.42
2022-12-04T00:56:23.427Z,21.90
2022-12-04T00:59:31.121Z,22.73
2022-12-04T01:02:37.104Z,23.63
2022-12-04T01:05:44.621Z,24.38
2022-12-04T01:08:50.601Z,24.00
2022-12-04T01:11:56.678Z,22.05
2022-12-04T01:15:06.295Z,24.52
2022-12-04T01:18:12.722Z,22.73
2022-12-04T01:21:18.451Z,24.35
2022-12-04T01:24:24.657Z,23.83
2022-12-04T01:27:30.286Z,22.90
2022-12-04T01:30:41.080Z,23.90
2022-12-04T01:33:48.749Z,24.13
2022-12-04T01:36:53.832Z,20.05
2022-12-04T01:40:02.783Z,22.42
2022-12-04T01:43:08.751Z,22.77
2022-12-04T01:46:16.726Z,23.65
2022-12-04T01:49:27.285Z,24.92
2022-12-04T01:52:32.779Z,23.75
2022-12-04T01:55:38.383Z,24.05
2022-12-04T01:58:44.772Z,22.88
2022-12-04T02:01:57.809Z,25.73
2022-12-04T02:05:06.192Z,22.65
2022-12-04T02:08:12.635Z,23.63
2022-12-04T02:11:22.597Z,24.05
2022-12-04T02:14:35.661Z,23.15
2022-12-04T02:17:47.340Z,22.42
2022-12-04T02:20:57.241Z,24.02
2022-12-04T02:24:15.480Z,23.83
2022-12-04T02:27:27.213Z,23.13
2022-12-04T02:30:37.442Z,24.08
2022-12-04T02:33:45.331Z,23.90
2022-12-04T02:36:54.212Z,22.35
2022-12-04T02:40:02.770Z,22.88
2022-12-04T02:43:16.002Z,26.17
2022-12-04T02:46:27.377Z,22.85
2022-12-04T02:49:35.377Z,23.10
2022-12-04T02:52:44.769Z,22.70
2022-12-04T02:55:51.876Z,23.52
2022-12-04T02:58:57.988Z,24.38
2022-12-04T03:02:12.239Z,25.48
2022-12-04T03:05:21.153Z,22.45
2022-12-04T03:08:29.301Z,23.58
2022-12-04T03:11:35.747Z,21.27
2022-12-04T03:14:43.036Z,22.02
2022-12-04T03:17:55.756Z,21.58
2022-12-04T03:21:02.590Z,22.63
2022-12-04T03:24:09.947Z,24.17
2022-12-04T03:27:19.693Z,24.92
2022-12-04T03:30:27.254Z,23.65
2022-12-04T03:33:38.901Z,22.35
2022-12-04T03:36:49.260Z,25.38
2022-12-04T03:40:00.040Z,23.40
2022-12-04T03:43:07.806Z,24.30
2022-12-04T03:46:15.892Z,24.10
2022-12-04T03:49:26.195Z,24.75
2022-12-04T03:52:33.306Z,25.55
2022-12-04T03:55:42.690Z,21.20
2022-12-04T03:58:50.388Z,24.13
2022-12-04T04:01:57.008Z,25.10
2022-12-04T04:05:09.359Z,22.67
2022-12-04T04:08:34.334Z,22.20
2022-12-04T04:11:46.395Z,23.95
2022-12-04T04:15:06.039Z,24.35
2022-12-04T04:18:23.853Z,23.55
2022-12-04T04:21:45.967Z,23.15
2022-12-04T04:24:56.223Z,25.52
2022-12-04T04:28:02.210Z,22.95
2022-12-04T04:31:14.245Z,24.90
2022-12-04T04:34:22.417Z,22.33
2022-12-04T04:37:36.646Z,26.08
2022-12-04T04:40:45.457Z,22.00
2022-12-04T04:43:56.376Z,20.77
2022-12-04T04:47:06.977Z,23.52
2022-12-04T04:50:13.823Z,21.33
2022-12-04T04:53:27.027Z,23.95
2022-12-04T04:56:33.618Z,24.00
2022-12-04T04:59:40.500Z,22.90
2022-12-04T05:02:47.134Z,22.55
2022-12-04T05:05:52.460Z,23.95
2022-12-04T05:09:03.736Z,23.17
2022-12-04T05:12:08.941Z,23.38
2022-12-04T05:15:14.557Z,23.10
2022-12-04T05:18:24.889Z,22.33
2022-12-04T05:21:27.730Z,23.90
2022-12-04T05:24:38.125Z,24.77
2022-12-04T05:27:44.822Z,23.13
2022-12-04T05:30:58.643Z,23.75
2022-12-04T05:34:04.480Z,22.23
2022-12-04T05:37:09.509Z,22.75
2022-12-04T05:40:18.680Z,20.70
2022-12-04T05:43:26.635Z,22.85
2022-12-04T05:46:34.455Z,21.88
2022-12-04T05:49:40.581Z,23.40
2022-12-04T05:52:46.440Z,23.52
2022-12-04T05:56:00.550Z,25.38
2022-12-04T05:59:06.141Z,24.08
2022-12-04T06:02:11.196Z,23.55
2022-12-04T06:05:18.139Z,25.10
2022-12-04T06:08:23.498Z,25.10
2022-12-04T06:11:32.918Z,25.23
2022-12-04T06:14:40.189Z,26.25
2022-12-04T06:17:46.208Z,25.15
2022-12-04T06:20:51.477Z,26.65
2022-12-04T06:23:59.666Z,23.55
2022-12-04T06:30:34.286Z,25.17
2022-12-04T06:33:42.384Z,25.63
2022-12-04T06:36:48.169Z,26.10
2022-12-04T06:39:56.302Z,24.25
2022-12-04T06:43:05.828Z,25.52
2022-12-04T06:46:11.499Z,24.23
2022-12-04T06:49:22.809Z,25.08
2022-12-04T06:52:28.420Z,24.02
2022-12-04T06:55:36.552Z,23.40
2022-12-04T06:58:45.179Z,23.13
2022-12-04T07:01:50.747Z,24.02
2022-12-04T07:04:58.336Z,24.40
2022-12-04T07:08:03.916Z,25.60
2022-12-04T07:11:09.165Z,23.00
2022-12-04T07:14:18.900Z,24.40
2022-12-04T07:17:23.955Z,26.20
2022-12-04T07:20:31.160Z,24.60
2022-12-04T07:23:36.320Z,22.45
2022-12-04T07:26:41.996Z,24.02
2022-12-04T07:29:49.970Z,23.50
2022-12-04T07:32:55.683Z,23.98
2022-12-04T07:36:03.406Z,24.63
2022-12-04T07:39:09.214Z,23.95
2022-12-04T07:42:22.550Z,25.00
2022-12-04T07:45:34.063Z,23.27
2022-12-04T07:48:40.285Z,21.83
2022-12-04T07:51:47.670Z,24.15
2022-12-04T07:54:56.290Z,25.58
2022-12-04T07:58:02.757Z,25.95
2022-12-04T08:01:12.523Z,24.45
2022-12-04T08:04:19.223Z,24.67
2022-12-04T08:07:26.619Z,23.95
2022-12-04T08:10:33.713Z,24.08
2022-12-04T08:13:39.231Z,21.65
2022-12-04T08:16:52.496Z,23.95
2022-12-04T08:19:58.544Z,21.83
2022-12-04T08:23:04.717Z,21.60
2022-12-04T08:26:10.097Z,23.70
2022-12-04T08:29:15.704Z,19.35
2022-12-04T08:32:26.727Z,23.55
2022-12-04T08:35:33.041Z,22.48
2022-12-04T08:38:38.659Z,22.63
2022-12-04T08:41:44.438Z,22.08
2022-12-04T08:44:49.980Z,23.95
2022-12-04T08:47:59.019Z,24.20
2022-12-04T08:51:04.442Z,23.10
2022-12-04T08:54:10.460Z,27.23
2022-12-04T08:57:15.477Z,34.50
2022-12-04T09:00:22.276Z,23.63
2022-12-04T09:03:31.155Z,23.30
2022-12-04T09:06:38.315Z,22.48
2022-12-04T09:09:48.413Z,21.58
2022-12-04T09:13:02.079Z,23.52
2022-12-04T09:19:15.653Z,24.95
2022-12-04T09:22:20.614Z,27.73
2022-12-04T09:25:26.662Z,26.50
2022-12-04T09:28:32.247Z,28.55
2022-12-04T09:31:41.857Z,25.15
2022-12-04T09:34:52.960Z,25.23
2022-12-04T09:37:59.960Z,25.92
2022-12-04T09:41:08.202Z,26.10
2022-12-04T09:44:19.622Z,26.15
2022-12-04T09:47:26.776Z,24.58
2022-12-04T09:50:38.320Z,25.83
2022-12-04T09:53:46.682Z,23.45
2022-12-04T09:56:58.812Z,22.50
2022-12-04T10:00:05.853Z,18.70
2022-12-04T10:03:17.898Z,20.85
2022-12-04T10:06:28.626Z,18.33
2022-12-04T10:09:38.044Z,16.48
2022-12-04T10:12:51.524Z,21.33
2022-12-04T10:16:04.958Z,20.55
2022-12-04T10:19:14.051Z,25.48
2022-12-04T10:22:26.318Z,21.52
2022-12-04T10:25:32.446Z,18.92
2022-12-04T10:28:44.212Z,25.48
2022-12-04T10:31:50.770Z,20.27
2022-12-04T10:34:58.120Z,23.52
2022-12-04T10:38:07.114Z,22.92
2022-12-04T10:41:15.408Z,21.00
2022-12-04T10:44:21.909Z,24.52
2022-12-04T10:47:29.367Z,21.63
2022-12-04T10:50:36.237Z,22.08
2022-12-04T10:53:45.279Z,19.38
2022-12-04T10:56:56.135Z,21.67
2022-12-04T11:00:01.978Z,22.85
2022-12-04T11:03:12.504Z,20.80
2022-12-04T11:06:19.108Z,24.70
2022-12-04T11:09:37.112Z,17.80
2022-12-04T11:12:45.301Z,23.27
2022-12-04T11:15:51.872Z,23.55
2022-12-04T11:19:01.703Z,24.67
2022-12-04T11:22:09.787Z,21.20
2022-12-04T11:25:21.750Z,19.30
2022-12-04T11:28:44.802Z,22.50
2022-12-04T11:32:00.367Z,23.48
2022-12-04T11:35:20.404Z,22.33
2022-12-04T11:38:28.325Z,23.60
2022-12-04T11:41:38.616Z,23.88
2022-12-04T11:44:52.461Z,22.42
2022-12-04T11:48:02.592Z,22.23
2022-12-04T11:51:19.343Z,21.27
2022-12-04T11:54:32.217Z,20.63
2022-12-04T11:57:44.031Z,21.83
2022-12-04T12:00:55.292Z,23.02
2022-12-04T12:04:14.872Z,23.42
2022-12-04T12:07:25.934Z,21.88
2022-12-04T12:10:36.842Z,21.98
2022-12-04T12:13:52.604Z,23.35
2022-12-04T12:17:01.498Z,21.83
2022-12-04T12:20:18.473Z,20.35
2022-12-04T12:23:32.834Z,21.58
2022-12-04T12:26:41.922Z,23.45
2022-12-04T12:29:58.580Z,22.08
2022-12-04T12:33:07.444Z,20.75
2022-12-04T12:36:23.223Z,21.95
2022-12-04T12:39:33.561Z,22.08
2022-12-04T12:42:41.753Z,23.20
2022-12-04T12:45:55.931Z,22.92
2022-12-04T12:49:06.019Z,20.25
2022-12-04T12:52:17.645Z,20.48
2022-12-04T12:55:27.662Z,22.40
2022-12-04T12:58:37.737Z,23.33
2022-12-04T13:02:00.325Z,21.58
2022-12-04T13:05:12.650Z,20.67
2022-12-04T13:08:20.043Z,23.75
2022-12-04T13:11:28.883Z,20.73
2022-12-04T13:14:35.545Z,21.98
2022-12-04T13:17:46.265Z,20.40
2022-12-04T13:20:56.182Z,21.77
2022-12-04T13:24:10.166Z,17.20
2022-12-04T13:27:20.827Z,19.33
2022-12-04T13:30:26.978Z,23.77
2022-12-04T13:33:52.570Z,21.23
2022-12-04T13:37:07.760Z,22.52
2022-12-04T13:40:29.017Z,17.67
2022-12-04T13:43:36.685Z,20.48
2022-12-04T13:46:45.942Z,18.80
2022-12-04T13:49:53.493Z,21.05
2022-12-04T13:53:03.978Z,22.45
2022-12-04T13:56:30.617Z,22.55
2022-12-04T13:59:41.341Z,21.67
2022-12-04T14:02:54.474Z,20.75
2022-12-04T14:06:05.562Z,19.67
2022-12-04T14:09:25.694Z,22.40
2022-12-04T14:12:33.144Z,19.45
2022-12-04T14:15:42.912Z,20.58
2022-12-04T14:18:51.499Z,20.23
2022-12-04T14:21:59.040Z,21.70
2022-12-04T14:25:27.321Z,20.30
2022-12-04T14:28:42.686Z,21.38
2022-12-04T14:31:50.787Z,20.10
2022-12-04T14:34:58.875Z,21.40
2022-12-04T14:38:22.838Z,23.40
2022-12-04T14:41:32.226Z,21.10
2022-12-04T14:44:38.835Z,22.08
2022-12-04T14:47:49.609Z,20.17
2022-12-04T14:51:00.712Z,22.55
2022-12-04T14:54:12.368Z,23.65
2022-12-04T14:57:35.748Z,21.98
2022-12-04T15:00:52.185Z,20.50
2022-12-04T15:04:00.401Z,21.50
2022-12-04T15:07:05.666Z,20.02
2022-12-04T15:10:33.358Z,22.33
2022-12-04T15:13:42.736Z,24.58
2022-12-04T15:16:52.523Z,19.13
2022-12-04T15:20:12.280Z,18.13
2022-12-04T15:23:18.377Z,22.25
2022-12-04T15:26:25.035Z,22.50
2022-12-04T15:29:31.682Z,21.50
2022-12-04T15:32:41.550Z,24.08
2022-12-04T15:35:50.906Z,22.48
2022-12-04T15:38:59.470Z,21.02
2022-12-04T15:42:09.249Z,24.85
2022-12-04T15:45:32.060Z,22.02
2022-12-04T15:48:47.668Z,23.73
2022-12-04T15:51:53.104Z,22.08
2022-12-04T15:55:03.089Z,21.10
2022-12-04T15:58:09.789Z,24.60
2022-12-04T16:01:16.239Z,25.40
2022-12-04T16:04:37.949Z,26.88
2022-12-04T16:07:54.406Z,27.17
2022-12-04T16:11:00.756Z,23.13
2022-12-04T16:14:08.173Z,21.50
2022-12-04T16:17:13.917Z,21.90
2022-12-04T16:20:23.880Z,23.33
2022-12-04T16:23:32.292Z,20.65
2022-12-04T16:26:38.351Z,22.23
2022-12-04T16:29:45.491Z,20.45
2022-12-04T16:32:54.778Z,23.77
2022-12-04T16:36:06.053Z,24.77
2022-12-04T16:39:11.796Z,23.90
2022-12-04T16:42:20.768Z,23.02
2022-12-04T16:45:34.381Z,22.02
2022-12-04T16:48:42.681Z,21.58
2022-12-04T16:51:52.911Z,24.88
2022-12-04T16:55:05.317Z,36.92
2022-12-04T16:58:12.642Z,42.22
2022-12-04T17:01:28.518Z,31.00
2022-12-04T17:04:34.284Z,27.60
2022-12-04T17:07:43.653Z,23.70
2022-12-04T17:10:51.957Z,22.45
2022-12-04T17:14:02.488Z,21.75
2022-12-04T17:17:08.867Z,21.92
2022-12-04T17:20:15.304Z,21.35
2022-12-04T17:23:25.242Z,19.52
2022-12-04T17:26:31.590Z,21.45
2022-12-04T17:29:37.971Z,20.77
2022-12-04T17:32:43.741Z,19.20
2022-12-04T17:35:50.394Z,21.17
2022-12-04T17:38:59.528Z,19.45
2022-12-04T17:42:05.851Z,21.10
2022-12-04T17:45:12.317Z,20.75
2022-12-04T17:48:21.902Z,19.83
2022-12-04T17:51:29.089Z,20.85
2022-12-04T17:54:40.473Z,20.80
2022-12-04T17:57:47.778Z,22.55
2022-12-04T18:00:57.787Z,20.38
2022-12-04T18:04:05.349Z,20.52
2022-12-04T18:07:12.192Z,21.58
2022-12-04T18:10:20.015Z,20.77
2022-12-04T18:13:29.732Z,19.95
2022-12-04T18:16:36.837Z,18.10
2022-12-04T18:19:42.513Z,19.38
2022-12-04T18:22:49.837Z,20.83
2022-12-04T18:26:01.483Z,24.75
2022-12-04T18:29:09.163Z,21.58
2022-12-04T18:32:15.276Z,19.15
2022-12-04T18:35:20.947Z,20.75
2022-12-04T18:38:27.730Z,22.60
2022-12-04T18:41:36.794Z,21.25
2022-12-04T18:44:46.045Z,18.88
2022-12-04T18:47:55.285Z,18.08
2022-12-04T18:51:06.594Z,19.05
2022-12-04T18:54:13.817Z,19.08
2022-12-04T18:57:23.115Z,21.90
2022-12-04T19:00:29.501Z,22.73
2022-12-04T19:03:35.221Z,22.45
2022-12-04T19:06:41.345Z,20.33
2022-12-04T19:10:10.464Z,19.40
2022-12-04T19:13:17.546Z,18.77
2022-12-04T19:16:29.692Z,19.20
2022-12-04T19:19:35.266Z,17.35
2022-12-04T19:22:41.914Z,17.23
2022-12-04T19:25:47.610Z,17.92
2022-12-04T19:28:57.832Z,17.80
2022-12-04T19:32:07.022Z,19.38
2022-12-04T19:35:13.157Z,20.42
2022-12-04T19:38:19.513Z,19.50
2022-12-04T19:41:27.450Z,21.17
2022-12-04T19:44:53.271Z,22.58
2022-12-04T19:48:02.474Z,22.55
2022-12-04T19:51:14.241Z,20.20
2022-12-04T19:54:22.167Z,19.08
2022-12-04T19:57:27.621Z,17.92
2022-12-04T20:00:36.530Z,18.05
2022-12-04T20:03:42.609Z,19.35
2022-12-04T20:06:54.318Z,18.70
2022-12-04T20:10:04.839Z,18.20
2022-12-04T20:13:13.719Z,17.58
2022-12-04T20:16:27.676Z,19.17
2022-12-04T20:19:37.251Z,18.45
2022-12-04T20:22:46.456Z,19.73
2022-12-04T20:25:56.117Z,18.75
2022-12-04T20:29:02.516Z,19.20
2022-12-04T20:32:16.413Z,15.63
2022-12-04T20:35:23.119Z,17.33
2022-12-04T20:38:29.944Z,20.27
2022-12-04T20:41:37.799Z,18.45
2022-12-04T20:44:44.251Z,20.33
2022-12-04T20:47:54.436Z,19.83
2022-12-04T20:51:04.147Z,18.95
2022-12-04T20:54:10.888Z,18.77
2022-12-04T20:57:17.052Z,22.48
2022-12-04T21:00:24.174Z,20.13
2022-12-04T21:03:38.287Z,20.02
2022-12-04T21:06:44.741Z,20.08
2022-12-04T21:09:52.522Z,19.58
2022-12-04T21:13:16.536Z,18.20
2022-12-04T21:16:24.079Z,15.30
2022-12-04T21:19:35.334Z,19.52
2022-12-04T21:22:41.330Z,21.25
2022-12-04T21:25:48.021Z,22.98
2022-12-04T21:28:54.115Z,21.35
2022-12-04T21:32:01.696Z,17.88
2022-12-04T21:35:13.729Z,21.13
2022-12-04T21:38:19.846Z,21.05
2022-12-04T21:41:40.531Z,19.38
2022-12-04T21:44:51.071Z,21.60
2022-12-04T21:47:59.135Z,21.77
2022-12-04T21:51:26.883Z,21.52
2022-12-04T21:54:44.063Z,20.45
2022-12-04T21:57:51.770Z,21.08
2022-12-04T22:01:02.783Z,21.35
2022-12-04T22:04:10.090Z,19.08
2022-12-04T22:07:20.331Z,20.05
2022-12-04T22:10:27.401Z,20.88
2022-12-04T22:13:33.358Z,21.10
2022-12-04T22:16:43.088Z,20.85
2022-12-04T22:19:50.216Z,23.33
2022-12-04T22:22:58.944Z,21.63
2022-12-04T22:26:07.828Z,22.17
2022-12-04T22:29:48.569Z,20.05
2022-12-04T22:32:47.449Z,20.23
2022-12-04T22:35:52.940Z,20.95
2022-12-04T22:39:09.747Z,23.45
2022-12-04T22:42:17.118Z,28.00
2022-12-04T22:45:23.081Z,20.88
2022-12-04T22:48:30.821Z,20.27
2022-12-04T22:51:37.385Z,20.67
2022-12-04T22:54:45.245Z,20.33
2022-12-04T22:57:51.577Z,22.23
2022-12-04T23:00:59.883Z,22.85
2022-12-04T23:04:07.265Z,19.83
2022-12-04T23:07:15.294Z,18.15
2022-12-04T23:10:27.861Z,19.77
2022-12-04T23:13:40.890Z,20.10
2022-12-04T23:16:49.579Z,19.58
2022-12-04T23:19:57.718Z,21.05
2022-12-04T23:23:04.231Z,22.02
2022-12-04T23:26:15.466Z,20.63
2022-12-04T23:29:52.196Z,20.35
2022-12-04T23:32:46.921Z,19.25
2022-12-04T23:35:53.991Z,18.20
2022-12-04T23:38:59.398Z,19.65
2022-12-04T23:42:11.282Z,17.85
2022-12-04T23:45:16.277Z,18.25
2022-12-04T23:48:23.329Z,18.88
2022-12-04T23:51:31.588Z,19.00
2022-12-04T23:54:38.706Z,17.45
2022-12-04T23:57:47.260Z,20.27
